Time;durP1;ratioP1;P1;durP2;ratioP2;P2;SDS_P1;SDS_P2;PMS_P1;PMS_P2;Temp;Humidity;BMP_temperature;BMP_pressure;BME280_temperature;BME280_humidity;BME280_pressure;Samples;Min_cycle;Max_cycle;Signal;HPM_P1;HPM_P2
2024/02/15 00:00:37;;;;;;;3.63;2.60;;;10.70;99.90;;;;;;4978800;28;20050;-62
2024/02/15 00:03:06;;;;;;;4.57;2.90;;;10.70;99.90;;;;;;4983265;28;20023;-62
2024/02/15 00:05:36;;;;;;;3.08;2.10;;;10.70;99.90;;;;;;4983263;28;20058;-62
2024/02/15 00:08:02;;;;;;;5.13;2.70;;;10.70;99.90;;;;;;4981686;28;20037;-61
2024/02/15 00:10:27;;;;;;;3.53;2.13;;;10.70;99.90;;;;;;4984000;28;20038;-62
2024/02/15 00:12:53;;;;;;;6.70;3.28;;;10.70;99.90;;;;;;4983887;28;20057;-61
2024/02/15 00:15:19;;;;;;;5.82;2.67;;;10.70;99.90;;;;;;4982158;28;20042;-62
2024/02/15 00:17:46;;;;;;;7.32;2.88;;;10.70;99.90;;;;;;4975972;28;20038;-61
2024/02/15 00:20:12;;;;;;;5.97;2.70;;;10.70;99.90;;;;;;4974135;28;20030;-62
2024/02/15 00:22:41;;;;;;;3.95;2.70;;;10.70;99.90;;;;;;4979293;28;20034;-62
2024/02/15 00:25:08;;;;;;;4.10;2.53;;;10.70;99.90;;;;;;4977984;28;20110;-62
2024/02/15 00:27:35;;;;;;;3.30;2.08;;;10.70;99.90;;;;;;4976107;28;20018;-62
2024/02/15 00:30:01;;;;;;;5.00;2.80;;;10.70;99.90;;;;;;4975893;28;20023;-62
2024/02/15 00:32:27;;;;;;;10.82;2.42;;;10.70;99.90;;;;;;4978984;28;20148;-62
2024/02/15 00:34:53;;;;;;;5.22;2.53;;;10.70;99.90;;;;;;4975305;28;20185;-61
2024/02/15 00:37:19;;;;;;;3.30;2.50;;;10.70;99.90;;;;;;4974920;28;20031;-61
2024/02/15 00:39:45;;;;;;;7.60;2.28;;;10.70;99.90;;;;;;4973446;28;20477;-62
2024/02/15 00:42:10;;;;;;;6.40;2.88;;;10.70;99.90;;;;;;4975709;28;20026;-61
2024/02/15 00:44:37;;;;;;;7.18;3.25;;;10.70;99.90;;;;;;4976051;28;20030;-62
2024/02/15 00:47:02;;;;;;;5.05;2.70;;;10.70;99.90;;;;;;4975338;28;20478;-61
2024/02/15 00:49:28;;;;;;;4.65;2.58;;;10.70;99.90;;;;;;4979055;28;20118;-60
2024/02/15 00:51:54;;;;;;;5.32;2.95;;;10.70;99.90;;;;;;4989681;28;20022;-61
2024/02/15 00:54:19;;;;;;;6.97;2.95;;;10.70;99.90;;;;;;4984321;28;20035;-61
2024/02/15 00:56:45;;;;;;;4.32;3.15;;;10.70;99.90;;;;;;4980594;28;20058;-60
2024/02/15 00:59:11;;;;;;;3.38;2.42;;;10.70;99.90;;;;;;4984165;28;20038;-61
2024/02/15 01:01:40;;;;;;;4.85;3.40;;;10.70;99.90;;;;;;4981134;28;20030;-61
2024/02/15 01:04:06;;;;;;;4.43;3.25;;;10.70;99.90;;;;;;4987937;28;20416;-61
2024/02/15 01:06:32;;;;;;;5.32;3.00;;;10.70;99.90;;;;;;4985036;28;20029;-61
2024/02/15 01:09:01;;;;;;;8.35;3.47;;;10.70;99.90;;;;;;4977718;28;20035;-60
2024/02/15 01:11:28;;;;;;;5.60;3.60;;;10.70;99.90;;;;;;4982160;28;20448;-61
2024/02/15 01:13:54;;;;;;;5.55;3.65;;;10.70;99.90;;;;;;4988192;28;20031;-61
2024/02/15 01:16:21;;;;;;;11.40;3.90;;;10.70;99.90;;;;;;4980293;28;20038;-62
2024/02/15 01:18:47;;;;;;;8.80;3.45;;;10.70;99.90;;;;;;4984952;28;20037;-61
2024/02/15 01:21:13;;;;;;;13.18;3.53;;;10.70;99.90;;;;;;4988185;28;20496;-61
2024/02/15 01:23:39;;;;;;;6.03;3.53;;;10.70;99.90;;;;;;4987223;28;20517;-61
2024/02/15 01:26:05;;;;;;;5.32;3.97;;;10.70;99.90;;;;;;5009683;23;20034;-83
2024/02/15 01:28:30;;;;;;;9.15;3.78;;;10.70;99.90;;;;;;4998298;28;20032;-83
2024/02/15 01:30:56;;;;;;;9.43;3.55;;;10.70;99.90;;;;;;4994191;28;20085;-82
2024/02/15 01:33:22;;;;;;;7.75;3.28;;;10.70;99.90;;;;;;4996746;28;20027;-83
2024/02/15 01:35:48;;;;;;;5.45;3.63;;;10.70;99.90;;;;;;4976563;28;20027;-83
2024/02/15 01:38:15;;;;;;;5.47;3.38;;;10.70;99.90;;;;;;4979784;28;20115;-83
2024/02/15 01:40:40;;;;;;;7.03;3.75;;;10.70;99.90;;;;;;4982287;28;20031;-83
2024/02/15 01:43:06;;;;;;;7.10;3.53;;;10.70;99.90;;;;;;4977507;28;20088;-83
2024/02/15 01:45:31;;;;;;;9.68;3.50;;;10.70;99.90;;;;;;4981894;28;20034;-83
2024/02/15 01:47:58;;;;;;;8.60;3.92;;;10.70;99.90;;;;;;4981872;28;20081;-83
2024/02/15 01:50:24;;;;;;;7.13;4.82;;;10.70;99.90;;;;;;4976380;28;20046;-83
2024/02/15 01:52:54;;;;;;;9.77;3.92;;;10.70;99.90;;;;;;4973845;28;20027;-84
2024/02/15 01:55:20;;;;;;;8.60;4.25;;;10.70;99.90;;;;;;4979722;28;20512;-84
2024/02/15 01:57:48;;;;;;;7.90;4.43;;;10.70;99.90;;;;;;4980512;28;20026;-83
2024/02/15 02:00:18;;;;;;;7.60;4.10;;;10.70;99.90;;;;;;4993897;28;20125;-84
2024/02/15 02:02:44;;;;;;;8.10;3.33;;;10.70;99.90;;;;;;4982878;28;20230;-83
2024/02/15 02:05:10;;;;;;;9.73;3.70;;;10.70;99.90;;;;;;4983848;28;20051;-84
2024/02/15 02:07:37;;;;;;;11.75;4.00;;;10.70;99.90;;;;;;4982750;28;20024;-84
2024/02/15 02:10:03;;;;;;;6.70;4.28;;;10.70;99.90;;;;;;4981705;28;20118;-84
2024/02/15 02:12:29;;;;;;;10.07;4.22;;;10.70;99.90;;;;;;4977518;28;20031;-83
2024/02/15 02:14:55;;;;;;;12.68;4.20;;;10.60;99.90;;;;;;5003972;23;20049;-63
2024/02/15 02:17:21;;;;;;;6.20;3.35;;;10.60;99.90;;;;;;5002805;28;20026;-65
2024/02/15 02:19:49;;;;;;;7.22;4.43;;;10.60;99.90;;;;;;5003701;28;20030;-65
2024/02/15 02:22:15;;;;;;;7.95;3.60;;;10.60;99.90;;;;;;5003552;28;20058;-65
2024/02/15 02:24:55;;;;;;;10.82;3.85;;;10.60;99.90;;;;;;4979904;28;20072;-66
2024/02/15 02:27:22;;;;;;;11.52;4.28;;;10.60;99.90;;;;;;5026008;23;20137;-61
2024/02/15 02:29:47;;;;;;;5.97;3.90;;;10.50;99.90;;;;;;4992591;28;20057;-61
2024/02/15 02:32:13;;;;;;;6.28;3.80;;;10.50;99.90;;;;;;4990980;28;20029;-61
2024/02/15 02:34:40;;;;;;;8.77;4.13;;;10.50;99.90;;;;;;4992895;28;20030;-61
2024/02/15 02:37:07;;;;;;;5.45;3.40;;;10.50;99.90;;;;;;4984219;28;20034;-61
2024/02/15 02:39:34;;;;;;;9.23;4.03;;;10.40;99.90;;;;;;4988753;28;20130;-61
2024/02/15 02:41:59;;;;;;;6.80;3.08;;;10.40;99.90;;;;;;4987967;28;20027;-61
2024/02/15 02:44:25;;;;;;;10.02;3.58;;;10.40;99.90;;;;;;4990558;28;20248;-61
2024/02/15 02:46:51;;;;;;;10.68;3.70;;;10.30;99.90;;;;;;4994543;28;20384;-60
2024/02/15 02:49:16;;;;;;;12.68;3.95;;;10.30;99.90;;;;;;4986968;28;20081;-61
2024/02/15 02:51:42;;;;;;;11.05;4.22;;;10.30;99.90;;;;;;4978193;28;20050;-61
2024/02/15 02:54:08;;;;;;;10.40;4.32;;;10.30;99.90;;;;;;4995574;28;20022;-62
2024/02/15 02:56:34;;;;;;;12.88;3.22;;;10.30;99.90;;;;;;4988125;28;20109;-62
2024/02/15 02:58:59;;;;;;;11.45;3.75;;;10.30;99.90;;;;;;4990757;28;20481;-62
2024/02/15 03:01:26;;;;;;;6.93;3.42;;;10.30;99.90;;;;;;4991677;28;20516;-61
2024/02/15 03:03:55;;;;;;;9.73;3.20;;;10.30;99.90;;;;;;4997479;28;20069;-60
2024/02/15 03:06:21;;;;;;;8.70;2.95;;;10.20;99.90;;;;;;4997425;28;20030;-60
2024/02/15 03:08:47;;;;;;;6.70;2.78;;;10.30;99.90;;;;;;4988145;28;20627;-61
2024/02/15 03:11:14;;;;;;;11.50;3.42;;;10.30;99.90;;;;;;4992651;28;20366;-61
2024/02/15 03:13:39;;;;;;;4.63;2.92;;;10.30;99.90;;;;;;4987946;28;20054;-61
2024/02/15 03:16:05;;;;;;;5.88;2.42;;;10.30;99.90;;;;;;4992743;28;20061;-60
2024/02/15 03:18:33;;;;;;;17.35;2.80;;;10.30;99.90;;;;;;4988182;28;20361;-61
2024/02/15 03:20:58;;;;;;;5.63;2.38;;;10.30;99.90;;;;;;4995169;28;20047;-61
2024/02/15 03:23:24;;;;;;;9.20;2.60;;;10.40;99.90;;;;;;4993599;28;20026;-61
2024/02/15 03:25:49;;;;;;;6.60;2.67;;;10.40;99.90;;;;;;4993579;28;20026;-61
2024/02/15 03:28:15;;;;;;;5.07;2.83;;;10.40;99.90;;;;;;4990119;28;20034;-61
2024/02/15 03:30:42;;;;;;;10.45;2.67;;;10.40;99.90;;;;;;4994906;28;20506;-61
2024/02/15 03:33:08;;;;;;;3.78;2.17;;;10.40;99.90;;;;;;4991130;28;20026;-61
2024/02/15 03:35:34;;;;;;;4.15;2.25;;;10.40;99.90;;;;;;5001286;28;20038;-61
2024/02/15 03:38:00;;;;;;;9.13;2.90;;;10.40;99.90;;;;;;4996836;28;20404;-61
2024/02/15 03:40:27;;;;;;;7.22;2.33;;;10.50;99.90;;;;;;4993911;28;20030;-61
2024/02/15 03:42:53;;;;;;;3.13;1.80;;;10.40;99.90;;;;;;4990026;28;20031;-61
2024/02/15 03:45:19;;;;;;;4.82;2.60;;;10.50;99.90;;;;;;4992795;28;20030;-61
2024/02/15 03:47:46;;;;;;;4.00;2.58;;;10.50;99.90;;;;;;4997353;28;20032;-61
2024/02/15 03:50:14;;;;;;;4.95;2.75;;;10.50;99.90;;;;;;4990473;28;20088;-61
2024/02/15 03:52:40;;;;;;;11.85;4.00;;;10.50;99.90;;;;;;4994958;28;20109;-62
2024/02/15 03:55:09;;;;;;;11.02;2.55;;;10.50;99.90;;;;;;4997333;28;20035;-61
2024/02/15 03:57:46;;;;;;;4.63;1.92;;;10.50;99.90;;;;;;4992605;28;20043;-61
2024/02/15 04:00:14;;;;;;;4.88;2.30;;;10.50;99.90;;;;;;4997806;28;20034;-61
2024/02/15 04:02:41;;;;;;;9.00;2.35;;;10.50;99.90;;;;;;4988502;28;20022;-61
2024/02/15 04:05:08;;;;;;;9.65;2.13;;;10.50;99.90;;;;;;4991946;28;20022;-61
2024/02/15 04:07:34;;;;;;;3.05;1.90;;;10.50;99.90;;;;;;4990829;28;20033;-62
2024/02/15 04:10:00;;;;;;;4.38;1.77;;;10.50;99.90;;;;;;4986475;28;20023;-61
2024/02/15 04:12:26;;;;;;;4.63;1.73;;;10.50;99.90;;;;;;4989805;28;20027;-62
2024/02/15 04:14:53;;;;;;;4.50;1.60;;;10.50;99.90;;;;;;4992847;28;20033;-62
2024/02/15 04:17:21;;;;;;;7.22;2.20;;;10.50;99.90;;;;;;4992583;28;20677;-62
2024/02/15 04:19:47;;;;;;;7.18;2.10;;;10.50;99.90;;;;;;4993478;28;20125;-62
2024/02/15 04:22:16;;;;;;;5.00;2.50;;;10.50;99.90;;;;;;4993610;28;20092;-62
2024/02/15 04:24:45;;;;;;;5.05;2.00;;;10.50;99.90;;;;;;4992798;28;20404;-61
2024/02/15 04:27:11;;;;;;;5.57;1.75;;;10.50;99.90;;;;;;4974553;28;20512;-62
2024/02/15 04:29:40;;;;;;;8.00;1.90;;;10.50;99.90;;;;;;4983531;28;20042;-62
2024/02/15 04:32:08;;;;;;;4.38;2.10;;;10.50;99.90;;;;;;4991778;28;20180;-62
2024/02/15 04:34:34;;;;;;;3.10;1.73;;;10.50;99.90;;;;;;4990500;28;20050;-61
2024/02/15 04:37:01;;;;;;;10.73;1.98;;;10.50;99.90;;;;;;4993552;28;20018;-61
2024/02/15 04:39:30;;;;;;;6.57;2.45;;;10.40;99.90;;;;;;4985704;28;20034;-59
2024/02/15 04:41:55;;;;;;;4.93;1.60;;;10.40;99.90;;;;;;4995038;28;20113;-61
2024/02/15 04:44:21;;;;;;;5.78;2.25;;;10.40;99.90;;;;;;4993531;28;20560;-61
2024/02/15 04:46:49;;;;;;;5.75;2.22;;;10.40;99.90;;;;;;4991701;28;20054;-61
2024/02/15 04:49:15;;;;;;;5.28;2.13;;;10.40;99.90;;;;;;4988446;28;20042;-61
2024/02/15 04:51:41;;;;;;;8.65;2.50;;;10.40;99.90;;;;;;4992072;28;20050;-61
2024/02/15 04:54:08;;;;;;;8.30;2.33;;;10.40;99.90;;;;;;4993006;28;20023;-61
2024/02/15 04:56:35;;;;;;;6.18;2.75;;;10.40;99.90;;;;;;4974038;28;20060;-61
2024/02/15 04:59:02;;;;;;;7.00;2.05;;;10.40;99.90;;;;;;4993049;28;20579;-61
2024/02/15 05:01:29;;;;;;;2.45;1.80;;;10.50;99.90;;;;;;4990352;28;20022;-61
2024/02/15 05:03:55;;;;;;;6.10;2.58;;;10.50;99.90;;;;;;4994685;28;20023;-63
2024/02/15 05:06:21;;;;;;;6.53;2.20;;;10.50;99.90;;;;;;4991099;28;20148;-61
2024/02/15 05:08:47;;;;;;;6.70;2.10;;;10.50;99.90;;;;;;4989863;28;20481;-61
2024/02/15 05:11:17;;;;;;;6.90;2.15;;;10.50;99.90;;;;;;4989209;28;20103;-60
2024/02/15 05:13:44;;;;;;;10.63;2.83;;;10.50;99.90;;;;;;4994976;28;20030;-62
2024/02/15 05:16:10;;;;;;;6.88;2.13;;;10.50;99.90;;;;;;4990523;28;20125;-62
2024/02/15 05:18:37;;;;;;;2.63;1.80;;;10.50;99.90;;;;;;4987874;28;20030;-62
2024/02/15 05:21:04;;;;;;;5.82;2.53;;;10.50;99.90;;;;;;4990039;28;20476;-60
2024/02/15 05:23:30;;;;;;;7.13;2.22;;;10.50;99.90;;;;;;4984585;28;20027;-62
2024/02/15 05:25:56;;;;;;;10.02;2.50;;;10.50;99.90;;;;;;4989672;28;20074;-62
2024/02/15 05:28:26;;;;;;;6.25;1.73;;;10.50;99.90;;;;;;4996465;28;20399;-62
2024/02/15 05:31:16;;;;;;;5.85;2.35;;;10.50;99.90;;;;;;4989296;28;20105;-62
2024/02/15 05:33:43;;;;;;;4.60;2.47;;;10.50;99.90;;;;;;4987970;28;20393;-62
2024/02/15 05:36:11;;;;;;;6.75;1.98;;;10.50;99.90;;;;;;4987494;28;20105;-62
2024/02/15 05:38:36;;;;;;;5.40;2.13;;;10.50;99.90;;;;;;4990059;28;20091;-62
2024/02/15 05:41:02;;;;;;;2.78;1.95;;;10.50;99.90;;;;;;4991365;28;20063;-62
2024/02/15 05:43:28;;;;;;;3.28;1.88;;;10.50;99.90;;;;;;4991057;28;20093;-62
2024/02/15 05:45:55;;;;;;;6.13;1.98;;;10.50;99.90;;;;;;4989205;28;20023;-61
2024/02/15 05:48:21;;;;;;;6.20;2.03;;;10.50;99.90;;;;;;4990386;28;20061;-62
2024/02/15 05:50:47;;;;;;;4.35;2.40;;;10.50;99.90;;;;;;4992623;28;20057;-62
2024/02/15 05:53:12;;;;;;;6.40;2.03;;;10.50;99.90;;;;;;4983485;28;20110;-62
2024/02/15 05:55:40;;;;;;;7.35;1.83;;;10.50;99.90;;;;;;4988406;28;20038;-61
2024/02/15 05:58:09;;;;;;;5.82;1.67;;;10.50;99.90;;;;;;4993101;28;20071;-62
2024/02/15 06:00:35;;;;;;;6.65;2.00;;;10.50;99.90;;;;;;4988816;28;20034;-62
2024/02/15 06:03:02;;;;;;;4.05;1.85;;;10.50;99.90;;;;;;4989076;28;20041;-62
2024/02/15 06:05:27;;;;;;;6.00;2.05;;;10.60;99.90;;;;;;4990582;28;20022;-62
2024/02/15 06:07:53;;;;;;;4.07;1.80;;;10.60;99.90;;;;;;4984694;28;20504;-62
2024/02/15 06:10:19;;;;;;;5.82;1.75;;;10.60;99.90;;;;;;4989829;28;20092;-63
2024/02/15 06:12:44;;;;;;;7.38;2.30;;;10.60;99.90;;;;;;4990530;28;20026;-61
2024/02/15 06:15:20;;;;;;;5.05;1.70;;;10.60;99.90;;;;;;4991472;28;20040;-62
2024/02/15 06:17:46;;;;;;;7.82;2.05;;;10.50;99.90;;;;;;4988309;28;20034;-61
2024/02/15 06:20:17;;;;;;;5.93;2.00;;;10.60;99.90;;;;;;4992763;28;20045;-62
2024/02/15 06:22:43;;;;;;;6.05;1.90;;;10.50;99.90;;;;;;4990046;28;20073;-61
2024/02/15 06:25:10;;;;;;;4.88;1.95;;;10.50;99.90;;;;;;4993423;28;20181;-62
2024/02/15 06:27:40;;;;;;;4.72;1.80;;;10.50;99.90;;;;;;4992556;28;20049;-62
2024/02/15 06:41:04;;;;;;;6.45;2.33;;;10.50;99.90;;;;;;4986902;28;20084;-62
2024/02/15 06:43:30;;;;;;;6.78;2.42;;;10.50;99.90;;;;;;4994506;28;20490;-62
2024/02/15 06:45:55;;;;;;;9.60;2.80;;;10.50;99.90;;;;;;4988154;28;20022;-62
2024/02/15 06:48:21;;;;;;;6.55;2.67;;;10.50;99.90;;;;;;4993140;28;20069;-61
2024/02/15 06:50:49;;;;;;;4.43;2.45;;;10.50;99.90;;;;;;4990112;28;20026;-62
2024/02/15 06:53:15;;;;;;;10.80;2.30;;;10.50;99.90;;;;;;4989539;28;20411;-62
2024/02/15 06:55:40;;;;;;;8.60;3.22;;;10.50;99.90;;;;;;4988667;28;20045;-62
2024/02/15 06:58:06;;;;;;;10.98;3.88;;;10.50;99.90;;;;;;4991834;28;20381;-63
2024/02/15 07:00:32;;;;;;;6.45;3.53;;;10.50;99.90;;;;;;4986552;28;20026;-62
2024/02/15 07:02:57;;;;;;;16.08;3.75;;;10.60;99.90;;;;;;4988354;28;20034;-62
2024/02/15 07:05:23;;;;;;;16.17;4.30;;;10.60;99.90;;;;;;4992508;28;20035;-62
2024/02/15 07:07:49;;;;;;;8.07;3.33;;;10.60;99.90;;;;;;4987889;28;20037;-62
2024/02/15 07:10:16;;;;;;;7.93;2.45;;;10.70;99.90;;;;;;4986276;28;21223;-62
2024/02/15 07:12:43;;;;;;;6.68;2.65;;;10.70;99.90;;;;;;4986887;28;20028;-62
2024/02/15 07:15:09;;;;;;;4.13;2.20;;;10.70;99.90;;;;;;4993045;28;20037;-62
2024/02/15 07:17:36;;;;;;;7.90;2.78;;;10.70;99.90;;;;;;4988263;28;20105;-62
2024/02/15 07:20:03;;;;;;;10.07;3.95;;;10.70;99.90;;;;;;4990999;28;20085;-61
2024/02/15 07:22:31;;;;;;;6.72;3.55;;;10.70;99.90;;;;;;4988695;28;20045;-62
2024/02/15 07:24:57;;;;;;;9.13;2.88;;;10.70;99.90;;;;;;4983766;28;20027;-62
2024/02/15 07:27:25;;;;;;;9.10;2.97;;;10.70;99.90;;;;;;4986464;28;20042;-62
2024/02/15 07:29:51;;;;;;;7.88;2.83;;;10.80;99.90;;;;;;4989761;28;20033;-62
2024/02/15 07:32:17;;;;;;;14.13;2.55;;;10.80;99.90;;;;;;4985275;28;20026;-62
2024/02/15 07:34:47;;;;;;;12.13;3.47;;;10.80;99.90;;;;;;4989766;28;20066;-62
2024/02/15 07:37:15;;;;;;;7.13;2.92;;;10.80;99.90;;;;;;4994437;28;20038;-61
2024/02/15 07:39:41;;;;;;;10.80;3.00;;;10.80;99.90;;;;;;4993120;28;20084;-62
2024/02/15 07:42:08;;;;;;;13.15;3.22;;;10.90;99.90;;;;;;4988408;28;20026;-62
2024/02/15 07:44:36;;;;;;;8.35;3.35;;;10.90;99.90;;;;;;4990765;28;20444;-62
2024/02/15 07:47:02;;;;;;;6.03;2.50;;;10.90;99.90;;;;;;4995044;28;20079;-62
2024/02/15 07:49:28;;;;;;;8.60;1.98;;;10.90;99.90;;;;;;4990549;28;20125;-60
2024/02/15 07:51:54;;;;;;;6.28;2.10;;;10.90;99.90;;;;;;4993483;28;20844;-62
2024/02/15 07:54:23;;;;;;;8.15;2.53;;;11.00;99.90;;;;;;4994369;28;20393;-62
2024/02/15 07:56:49;;;;;;;11.52;3.08;;;11.10;99.90;;;;;;4989167;28;20030;-62
2024/02/15 07:59:21;;;;;;;4.15;2.38;;;11.10;99.90;;;;;;4995777;28;20129;-62
2024/02/15 08:01:49;;;;;;;4.30;1.98;;;11.10;99.90;;;;;;4991711;28;20023;-61
2024/02/15 08:04:15;;;;;;;11.65;2.17;;;11.10;99.90;;;;;;4991283;28;20083;-62
2024/02/15 08:06:41;;;;;;;6.63;1.65;;;11.20;99.90;;;;;;4993813;28;20084;-62
2024/02/15 08:09:09;;;;;;;10.85;2.83;;;11.30;99.90;;;;;;4991874;28;20101;-61
2024/02/15 08:11:34;;;;;;;8.55;3.15;;;11.30;99.90;;;;;;4986313;28;20384;-60
2024/02/15 08:14:00;;;;;;;7.05;2.35;;;11.40;99.90;;;;;;4995952;28;20023;-61
2024/02/15 08:16:29;;;;;;;6.57;2.33;;;11.40;99.90;;;;;;4992958;28;20036;-61
2024/02/15 08:18:55;;;;;;;8.40;2.60;;;11.50;99.90;;;;;;4984553;28;20503;-61
2024/02/15 08:21:32;;;;;;;9.63;2.20;;;11.50;99.90;;;;;;4988797;28;20040;-61
2024/02/15 08:23:59;;;;;;;7.75;2.00;;;11.50;99.90;;;;;;4988411;28;20038;-61
2024/02/15 08:26:25;;;;;;;13.98;2.60;;;11.50;99.90;;;;;;5016623;23;20084;-78
2024/02/15 08:28:50;;;;;;;8.75;1.75;;;11.50;99.90;;;;;;5016029;28;20030;-78
2024/02/15 08:31:16;;;;;;;6.53;2.17;;;11.50;99.90;;;;;;5017115;28;20057;-80
2024/02/15 08:33:45;;;;;;;9.25;2.30;;;11.50;99.90;;;;;;5017608;28;20033;-81
2024/02/15 08:36:13;;;;;;;5.50;1.55;;;11.50;99.90;;;;;;5017696;28;20044;-80
2024/02/15 08:38:39;;;;;;;5.05;1.85;;;11.50;99.90;;;;;;5018556;28;20051;-81
2024/02/15 08:41:06;;;;;;;3.92;1.88;;;11.50;99.90;;;;;;5016683;28;20038;-80
2024/02/15 08:43:32;;;;;;;11.93;2.60;;;11.60;99.90;;;;;;5017843;28;20022;-80
2024/02/15 08:45:58;;;;;;;5.65;1.90;;;11.60;99.90;;;;;;5017436;28;20025;-81
2024/02/15 08:48:24;;;;;;;10.95;2.20;;;11.60;99.90;;;;;;5016724;28;20022;-80
2024/02/15 08:50:51;;;;;;;10.07;2.53;;;11.60;99.90;;;;;;5017988;28;20388;-79
2024/02/15 08:53:19;;;;;;;8.27;1.83;;;11.60;99.90;;;;;;5017454;28;20040;-81
2024/02/15 08:55:45;;;;;;;6.53;1.95;;;11.80;99.90;;;;;;5017896;28;20026;-79
2024/02/15 08:58:11;;;;;;;7.60;2.58;;;11.80;99.90;;;;;;4988443;28;20486;-81
2024/02/15 09:00:41;;;;;;;5.72;2.08;;;11.80;99.90;;;;;;4991118;28;20046;-81
2024/02/15 09:03:07;;;;;;;5.97;2.10;;;11.80;99.90;;;;;;4996546;28;20029;-81
2024/02/15 09:05:32;;;;;;;6.97;2.85;;;11.70;99.90;;;;;;4997289;28;20018;-81
2024/02/15 09:07:58;;;;;;;10.50;2.13;;;11.70;99.90;;;;;;5005236;28;20075;-81
2024/02/15 09:10:24;;;;;;;16.50;2.35;;;11.80;99.90;;;;;;5014148;28;20026;-81
2024/02/15 09:12:49;;;;;;;6.53;2.13;;;11.80;99.90;;;;;;4987240;28;20090;-81
2024/02/15 09:15:18;;;;;;;8.02;2.38;;;11.80;99.90;;;;;;5005619;28;20034;-80
2024/02/15 09:17:45;;;;;;;5.65;2.42;;;11.90;99.90;;;;;;4979474;28;20038;-81
2024/02/15 09:20:15;;;;;;;10.70;2.40;;;11.80;99.90;;;;;;4979287;28;20524;-81
2024/02/15 09:22:51;;;;;;;8.23;2.30;;;11.90;99.90;;;;;;4996366;28;20050;-81
2024/02/15 09:25:18;;;;;;;7.32;2.10;;;11.90;99.90;;;;;;5006087;28;20033;-81
2024/02/15 09:27:44;;;;;;;2.90;1.67;;;11.90;99.90;;;;;;5016720;28;21784;-81
2024/02/15 09:30:11;;;;;;;8.10;1.85;;;12.00;99.90;;;;;;5017094;28;20056;-81
2024/02/15 09:32:37;;;;;;;6.80;2.13;;;12.10;99.90;;;;;;4991545;28;20026;-81
2024/02/15 09:35:07;;;;;;;9.43;1.90;;;12.20;99.90;;;;;;5000878;28;20030;-81
2024/02/15 09:37:38;;;;;;;8.10;1.75;;;12.30;99.90;;;;;;5013509;28;20388;-81
2024/02/15 09:40:09;;;;;;;5.13;2.25;;;12.50;99.90;;;;;;4997647;28;20026;-80
2024/02/15 09:42:35;;;;;;;11.82;4.15;;;12.60;99.90;;;;;;4998628;28;20053;-82
2024/02/15 09:45:02;;;;;;;3.78;1.85;;;12.80;99.90;;;;;;4988735;28;20029;-82
2024/02/15 09:47:36;;;;;;;7.20;2.30;;;13.00;99.90;;;;;;4999554;28;20026;-81
2024/02/15 09:50:13;;;;;;;4.85;1.50;;;13.30;99.90;;;;;;5016386;28;20046;-81
2024/02/15 09:52:51;;;;;;;6.50;1.90;;;13.60;99.90;;;;;;5016952;28;20034;-82
2024/02/15 09:55:17;;;;;;;8.05;1.77;;;13.90;99.90;;;;;;5005594;28;20107;-81
2024/02/15 09:57:47;;;;;;;8.73;2.95;;;13.90;99.90;;;;;;4990468;28;20026;-82
2024/02/15 10:00:15;;;;;;;11.68;3.17;;;14.00;99.90;;;;;;5001171;28;20503;-82
2024/02/15 10:02:44;;;;;;;21.15;8.38;;;14.00;99.90;;;;;;5000844;28;20026;-81
2024/02/15 10:05:13;;;;;;;7.25;2.70;;;13.90;99.90;;;;;;4986020;28;20042;-81
2024/02/15 10:07:45;;;;;;;6.05;2.65;;;13.80;99.90;;;;;;5006124;28;20041;-79
2024/02/15 10:10:19;;;;;;;24.23;8.88;;;13.90;99.90;;;;;;5016339;28;20048;-82
2024/02/15 10:12:54;;;;;;;49.30;19.45;;;14.00;99.90;;;;;;5016918;28;20018;-81
2024/02/15 10:15:33;;;;;;;26.73;12.13;;;14.10;99.90;;;;;;4991731;28;20038;-81
2024/02/15 10:18:00;;;;;;;7.68;3.65;;;14.10;99.90;;;;;;4996242;28;20030;-81
2024/02/15 10:20:26;;;;;;;39.97;15.68;;;14.20;99.90;;;;;;5013753;28;20041;-81
2024/02/15 10:23:13;;;;;;;19.23;7.10;;;14.20;99.90;;;;;;5016792;28;20361;-81
2024/02/15 10:25:40;;;;;;;8.48;4.05;;;14.30;99.90;;;;;;4986293;28;20500;-81
2024/02/15 10:28:11;;;;;;;3.50;1.85;;;14.40;99.90;;;;;;4991164;28;20034;-82
2024/02/15 10:30:38;;;;;;;7.40;2.08;;;14.30;99.90;;;;;;5005361;28;20112;-80
2024/02/15 10:33:05;;;;;;;4.07;2.20;;;14.30;99.90;;;;;;5012689;28;20679;-81
2024/02/15 10:35:34;;;;;;;7.63;3.67;;;14.20;99.90;;;;;;5015558;28;20073;-80
2024/02/15 10:38:10;;;;;;;6.65;1.83;;;14.30;99.90;;;;;;4998228;28;20033;-81
2024/02/15 10:40:43;;;;;;;4.40;1.60;;;14.30;99.90;;;;;;5005511;28;20033;-80
2024/02/15 10:43:12;;;;;;;6.68;2.92;;;14.40;99.90;;;;;;5005944;28;20081;-80
2024/02/15 10:45:39;;;;;;;7.90;3.03;;;14.40;99.90;;;;;;5014550;28;20034;-81
2024/02/15 10:48:13;;;;;;;6.32;2.67;;;14.40;99.90;;;;;;4999229;28;20106;-81
2024/02/15 10:50:46;;;;;;;4.55;2.20;;;14.50;99.90;;;;;;5007779;28;20038;-80
2024/02/15 10:53:26;;;;;;;5.85;1.95;;;14.50;99.90;;;;;;4995031;28;20452;-81
2024/02/15 10:56:05;;;;;;;4.53;1.90;;;14.50;99.90;;;;;;4984041;28;20026;-80
2024/02/15 10:58:36;;;;;;;10.88;1.55;;;14.50;99.90;;;;;;4997601;28;20065;-80
2024/02/15 11:01:08;;;;;;;3.40;2.53;;;14.50;99.90;;;;;;4987911;28;20038;-80
2024/02/15 11:03:36;;;;;;;4.50;1.90;;;14.60;99.90;;;;;;4980188;28;20110;-80
2024/02/15 11:06:06;;;;;;;10.43;1.75;;;14.60;99.90;;;;;;4994716;28;20069;-81
2024/02/15 11:08:32;;;;;;;4.20;1.75;;;14.70;99.90;;;;;;5011868;28;20018;-82
2024/02/15 11:10:59;;;;;;;7.32;1.60;;;14.90;99.90;;;;;;5003526;28;20033;-81
2024/02/15 11:13:24;;;;;;;9.95;2.45;;;15.00;99.90;;;;;;5017258;28;20041;-82
2024/02/15 11:15:52;;;;;;;4.95;1.60;;;15.10;99.90;;;;;;5017324;28;20476;-82
2024/02/15 11:18:44;;;;;;;9.02;3.22;;;15.40;99.90;;;;;;5018544;28;20048;-82
2024/02/15 11:21:10;;;;;;;4.82;2.60;;;15.50;99.90;;;;;;5017568;28;20030;-81
2024/02/15 11:23:35;;;;;;;6.30;2.55;;;15.60;99.90;;;;;;5000092;28;20480;-82
2024/02/15 11:26:01;;;;;;;10.15;3.13;;;15.70;99.90;;;;;;5000850;28;20022;-82
2024/02/15 11:28:30;;;;;;;5.20;1.80;;;15.70;99.90;;;;;;4997562;28;20045;-81
2024/02/15 11:30:59;;;;;;;5.68;2.53;;;15.70;99.90;;;;;;5000846;28;20559;-81
2024/02/15 11:33:37;;;;;;;10.65;2.08;;;15.80;99.90;;;;;;5018317;28;20026;-81
2024/02/15 11:36:11;;;;;;;4.80;1.90;;;15.80;99.90;;;;;;5019403;28;20092;-81
2024/02/15 11:38:39;;;;;;;6.80;2.60;;;15.90;99.90;;;;;;5018811;28;20026;-81
2024/02/15 11:41:06;;;;;;;5.25;2.20;;;16.00;99.90;;;;;;5000816;28;20029;-82
2024/02/15 11:43:54;;;;;;;6.38;2.45;;;16.10;99.90;;;;;;5000909;28;20056;-82
2024/02/15 11:46:20;;;;;;;9.35;2.97;;;16.10;99.90;;;;;;5000899;28;20026;-82
2024/02/15 11:48:49;;;;;;;7.30;2.40;;;16.00;99.90;;;;;;5001314;28;20026;-81
2024/02/15 11:51:42;;;;;;;9.73;3.05;;;16.10;99.90;;;;;;5019158;28;20034;-81
2024/02/15 11:54:14;;;;;;;13.18;3.35;;;16.20;99.90;;;;;;5018803;28;20447;-82
2024/02/15 11:57:09;;;;;;;4.88;1.63;;;16.20;99.90;;;;;;5019612;28;20049;-81
2024/02/15 12:00:12;;;;;;;5.40;3.15;;;16.20;99.90;;;;;;4984681;28;20042;-82
2024/02/15 12:19:21;;;;;;;4.95;2.10;;;16.00;99.90;;;;;;4998105;28;20061;-81
2024/02/15 12:21:48;;;;;;;8.73;3.60;;;16.00;99.90;;;;;;4980948;28;20018;-81
2024/02/15 12:24:15;;;;;;;7.57;2.88;;;16.00;99.90;;;;;;4997831;28;20121;-81
2024/02/15 12:26:41;;;;;;;13.80;3.35;;;16.00;99.90;;;;;;4980600;28;20065;-81
2024/02/15 12:29:08;;;;;;;7.43;2.00;;;16.10;99.90;;;;;;4980107;28;20113;-81
2024/02/15 12:31:38;;;;;;;19.27;6.63;;;16.10;99.90;;;;;;4985229;28;20025;-81
2024/02/15 12:34:07;;;;;;;8.52;3.65;;;16.00;99.90;;;;;;5000031;28;20065;-81
2024/02/15 12:36:38;;;;;;;6.40;2.22;;;16.10;99.90;;;;;;5017972;28;20049;-82
2024/02/15 12:39:14;;;;;;;5.72;1.50;;;16.10;99.90;;;;;;5017401;28;20095;-81
2024/02/15 12:41:42;;;;;;;2.35;1.27;;;16.00;99.90;;;;;;5000004;28;20033;-81
2024/02/15 12:44:07;;;;;;;7.00;2.47;;;16.00;99.90;;;;;;5000256;28;20028;-81
2024/02/15 12:46:34;;;;;;;6.03;1.80;;;16.00;99.90;;;;;;5017918;28;20113;-81
2024/02/15 12:49:15;;;;;;;4.72;1.58;;;16.10;99.90;;;;;;5016538;28;20674;-81
2024/02/15 12:51:53;;;;;;;6.05;1.15;;;16.10;99.90;;;;;;5014787;28;20053;-83
2024/02/15 12:54:23;;;;;;;2.33;1.10;;;16.10;99.90;;;;;;4997844;28;20036;-82
2024/02/15 12:56:48;;;;;;;2.88;1.33;;;16.30;99.90;;;;;;5017319;28;20503;-81
2024/02/15 12:59:15;;;;;;;3.78;1.73;;;16.50;99.90;;;;;;4997099;28;20030;-82
2024/02/15 13:01:41;;;;;;;2.95;1.20;;;16.50;99.90;;;;;;5001950;28;20052;-82
2024/02/15 13:04:08;;;;;;;3.50;1.27;;;16.70;99.90;;;;;;4999759;28;20117;-82
2024/02/15 13:06:35;;;;;;;6.55;1.40;;;16.70;99.90;;;;;;5015995;28;20109;-82
2024/02/15 13:09:03;;;;;;;4.25;1.70;;;16.70;99.90;;;;;;4999156;28;20095;-82
2024/02/15 13:11:29;;;;;;;1.50;1.08;;;16.70;99.90;;;;;;4997141;28;20109;-82
2024/02/15 13:13:54;;;;;;;2.38;1.30;;;16.60;99.90;;;;;;5017692;28;20058;-82
2024/02/15 13:16:23;;;;;;;5.65;1.40;;;16.70;99.90;;;;;;4999822;28;20396;-82